Time;durP1;ratioP1;P1;durP2;ratioP2;P2;SDS_P1;SDS_P2;PMS_P1;PMS_P2;Temp;Humidity;BMP_temperature;BMP_pressure;BME280_temperature;BME280_humidity;BME280_pressure;Samples;Min_cycle;Max_cycle;Signal;HPM_P1;HPM_P2
2023/08/14 04:01:42;;;;;;;6.13;3.35;;;21.40;99.90;;;;;;5427922;23;20603;-66
2023/08/14 04:04:08;;;;;;;8.02;3.50;;;21.40;99.90;;;;;;5021351;28;20030;-66
2023/08/14 04:06:35;;;;;;;4.82;3.38;;;21.30;99.90;;;;;;5010130;28;20493;-66
2023/08/14 04:09:02;;;;;;;8.27;4.00;;;21.40;99.90;;;;;;5021163;28;20038;-67
2023/08/14 04:11:27;;;;;;;8.75;3.95;;;21.50;99.90;;;;;;5010106;28;20387;-66
2023/08/14 04:13:53;;;;;;;6.45;3.70;;;21.50;99.90;;;;;;5001038;28;20030;-67
2023/08/14 04:16:18;;;;;;;6.30;3.30;;;21.40;99.90;;;;;;5001769;28;20035;-66
2023/08/14 04:18:44;;;;;;;3.80;3.20;;;21.50;99.90;;;;;;5001732;28;20403;-66
2023/08/14 04:21:09;;;;;;;10.73;4.20;;;21.30;99.90;;;;;;4999991;28;20096;-66
2023/08/14 04:23:35;;;;;;;5.47;3.90;;;21.20;99.90;;;;;;5000463;28;20039;-65
2023/08/14 04:26:01;;;;;;;;;;;21.20;99.90;;;;;;5001111;28;20048;-66
2023/08/14 04:28:26;;;;;;;6.07;3.65;;;21.20;99.90;;;;;;5000986;28;20413;-66
2023/08/14 04:30:52;;;;;;;7.95;4.03;;;21.10;99.90;;;;;;5001204;28;20105;-65
2023/08/14 04:33:18;;;;;;;7.78;3.47;;;21.20;99.90;;;;;;5000584;28;20099;-66
2023/08/14 04:35:44;;;;;;;5.70;3.70;;;21.40;99.90;;;;;;5000716;28;20026;-66
2023/08/14 04:38:10;;;;;;;8.75;3.80;;;21.40;99.90;;;;;;4999844;28;20054;-66
2023/08/14 04:40:36;;;;;;;7.55;3.85;;;21.40;99.90;;;;;;4997295;28;20109;-66
2023/08/14 04:43:02;;;;;;;4.97;4.05;;;21.30;99.90;;;;;;4987672;28;20490;-66
2023/08/14 04:45:28;;;;;;;9.32;4.03;;;21.30;99.90;;;;;;5003448;28;20022;-67
2023/08/14 04:47:53;;;;;;;4.50;3.60;;;21.30;99.90;;;;;;5002837;28;20100;-66
2023/08/14 04:50:19;;;;;;;5.82;3.22;;;21.30;99.90;;;;;;5001898;28;20026;-66
2023/08/14 04:52:44;;;;;;;8.48;4.05;;;21.30;99.90;;;;;;5000737;28;20031;-66
2023/08/14 04:55:10;;;;;;;6.07;3.78;;;21.40;99.90;;;;;;5000245;28;20062;-64
2023/08/14 04:57:35;;;;;;;6.55;4.03;;;21.40;99.90;;;;;;5000359;28;20125;-64
2023/08/14 05:00:01;;;;;;;3.97;3.63;;;21.50;99.90;;;;;;5000102;28;20031;-64
2023/08/14 05:02:29;;;;;;;6.55;4.47;;;21.40;99.90;;;;;;5000008;28;20038;-63
2023/08/14 05:04:54;;;;;;;7.55;3.92;;;21.40;99.90;;;;;;4997091;28;20482;-65
2023/08/14 05:07:20;;;;;;;7.70;4.45;;;21.40;99.90;;;;;;4997055;28;20065;-63
2023/08/14 05:09:48;;;;;;;6.25;4.35;;;21.40;99.90;;;;;;4997697;28;20072;-64
2023/08/14 05:12:13;;;;;;;9.25;4.20;;;21.50;99.90;;;;;;4997070;28;20038;-63
2023/08/14 05:14:39;;;;;;;6.72;3.85;;;21.50;99.90;;;;;;4996753;28;20098;-65
2023/08/14 05:17:05;;;;;;;5.85;3.97;;;21.50;99.90;;;;;;4996459;28;20038;-64
2023/08/14 05:19:30;;;;;;;12.18;4.20;;;21.50;99.90;;;;;;4996455;28;20084;-63
2023/08/14 05:21:56;;;;;;;9.18;4.30;;;21.60;99.90;;;;;;4996188;28;20473;-64
2023/08/14 05:24:21;;;;;;;8.90;4.10;;;21.70;99.90;;;;;;4996411;28;20058;-65
2023/08/14 05:26:47;;;;;;;;;;;21.80;99.90;;;;;;4996734;28;20054;-65
2023/08/14 05:29:12;;;;;;;8.77;4.57;;;21.80;99.90;;;;;;4995459;28;19906;-63
2023/08/14 05:31:38;;;;;;;8.93;3.90;;;21.90;99.90;;;;;;4995269;28;20050;-64
2023/08/14 05:34:03;;;;;;;6.47;3.50;;;22.00;99.90;;;;;;4996820;28;20066;-67
2023/08/14 05:36:29;;;;;;;4.75;3.63;;;22.10;99.90;;;;;;4985761;28;20030;-62
2023/08/14 05:38:54;;;;;;;6.57;3.72;;;22.10;99.90;;;;;;4996335;28;20030;-64
2023/08/14 05:41:21;;;;;;;8.43;3.88;;;22.20;99.90;;;;;;4994914;28;20026;-63
2023/08/14 05:43:48;;;;;;;9.48;3.65;;;22.30;99.90;;;;;;4996836;28;20109;-64
2023/08/14 05:46:14;;;;;;;6.55;3.53;;;22.40;99.90;;;;;;4996451;28;20109;-68
2023/08/14 05:48:39;;;;;;;9.80;4.22;;;22.40;99.90;;;;;;4996347;28;20105;-67
2023/08/14 05:51:05;;;;;;;7.72;4.90;;;22.50;99.90;;;;;;4995761;28;20030;-68
2023/08/14 05:53:30;;;;;;;;;;;22.50;99.90;;;;;;4995957;28;20109;-67
2023/08/14 05:55:56;;;;;;;5.35;3.80;;;22.40;99.90;;;;;;4996355;28;19917;-67
2023/08/14 05:58:21;;;;;;;7.32;4.05;;;22.40;99.90;;;;;;4996145;28;20037;-68
2023/08/14 06:00:47;;;;;;;5.97;4.03;;;22.40;99.90;;;;;;4995095;28;20034;-68
2023/08/14 06:03:12;;;;;;;7.32;4.13;;;22.50;99.90;;;;;;4996706;28;20030;-68
2023/08/14 06:05:38;;;;;;;;;;;22.60;99.90;;;;;;4996580;28;20095;-68
2023/08/14 06:08:04;;;;;;;8.80;3.70;;;22.70;99.90;;;;;;4995615;28;20393;-68
2023/08/14 06:10:30;;;;;;;7.20;4.00;;;22.80;99.90;;;;;;4995470;28;20037;-68
2023/08/14 06:12:56;;;;;;;10.43;4.03;;;22.90;99.90;;;;;;4994449;28;20054;-67
2023/08/14 06:15:21;;;;;;;;;;;23.00;99.90;;;;;;4995817;28;20058;-68
2023/08/14 06:17:48;;;;;;;6.28;3.70;;;23.10;99.90;;;;;;4995599;28;19906;-68
2023/08/14 06:20:14;;;;;;;6.25;4.13;;;23.20;99.90;;;;;;4995386;28;20030;-68
2023/08/14 06:22:41;;;;;;;6.82;3.65;;;23.30;99.90;;;;;;4995384;28;20022;-68
2023/08/14 06:25:07;;;;;;;7.97;3.78;;;23.40;99.90;;;;;;4995428;28;20023;-67
2023/08/14 06:27:33;;;;;;;;;;;23.50;99.90;;;;;;4995857;28;20049;-67
2023/08/14 06:29:59;;;;;;;6.13;3.83;;;23.60;99.90;;;;;;4994088;28;20362;-68
2023/08/14 06:32:24;;;;;;;;;;;23.70;99.90;;;;;;4994461;28;20022;-68
2023/08/14 06:34:50;;;;;;;8.52;4.10;;;23.60;99.90;;;;;;4995224;28;19905;-68
2023/08/14 06:37:15;;;;;;;;;;;23.50;99.90;;;;;;4995397;28;20112;-68
2023/08/14 06:39:41;;;;;;;7.85;4.35;;;23.50;99.90;;;;;;4996331;28;20314;-67
2023/08/14 06:42:06;;;;;;;;;;;23.60;99.90;;;;;;4996989;28;20101;-67
2023/08/14 06:44:32;;;;;;;4.65;3.47;;;23.70;99.90;;;;;;4999144;28;20277;-67
2023/08/14 06:46:59;;;;;;;;;;;23.80;99.90;;;;;;5000005;28;20037;-68
2023/08/14 06:49:25;;;;;;;5.35;3.92;;;23.80;99.90;;;;;;4998903;28;19909;-67
2023/08/14 06:51:50;;;;;;;;;;;23.90;99.90;;;;;;4994366;28;20392;-69
2023/08/14 06:54:16;;;;;;;6.75;3.95;;;23.90;99.90;;;;;;4993903;28;19906;-68
2023/08/14 06:56:41;;;;;;;;;;;23.80;99.90;;;;;;4995878;28;20026;-68
2023/08/14 06:59:07;;;;;;;6.57;3.85;;;23.80;99.90;;;;;;4995217;28;19910;-68
2023/08/14 07:01:32;;;;;;;;;;;23.80;99.90;;;;;;4995378;28;20039;-68
2023/08/14 07:03:58;;;;;;;6.30;3.83;;;23.70;99.90;;;;;;4993529;28;20349;-69
2023/08/14 07:06:23;;;;;;;;;;;23.70;99.90;;;;;;4994971;28;20034;-68
2023/08/14 07:08:49;;;;;;;7.40;3.45;;;23.80;99.90;;;;;;4994527;28;20354;-67
2023/08/14 07:11:14;;;;;;;;;;;23.80;99.90;;;;;;4994940;28;20360;-67
2023/08/14 07:13:40;;;;;;;9.10;3.50;;;23.80;99.90;;;;;;4993217;28;19913;-69
2023/08/14 07:16:05;;;;;;;;;;;23.90;99.90;;;;;;4995450;28;20109;-68
2023/08/14 07:18:31;;;;;;;7.90;3.90;;;23.80;99.90;;;;;;4994952;28;19959;-68
2023/08/14 07:20:58;;;;;;;;;;;23.80;99.90;;;;;;4995035;28;20045;-67
2023/08/14 07:23:23;;;;;;;5.63;3.78;;;23.70;99.90;;;;;;4992803;28;19917;-68
2023/08/14 07:25:49;;;;;;;;;;;23.80;99.90;;;;;;4995136;28;20026;-68
2023/08/14 07:28:15;;;;;;;5.82;3.97;;;23.80;99.90;;;;;;4997279;28;19929;-68
2023/08/14 07:30:41;;;;;;;;;;;23.80;99.90;;;;;;4996361;28;20034;-68
2023/08/14 07:33:07;;;;;;;7.80;4.25;;;23.80;99.90;;;;;;4994415;28;19906;-68
2023/08/14 07:35:33;;;;;;;8.00;4.10;;;23.90;99.90;;;;;;4994531;28;20100;-68
2023/08/14 07:37:59;;;;;;;;;;;23.90;99.90;;;;;;4994294;28;20452;-68
2023/08/14 07:40:25;;;;;;;6.47;3.92;;;24.00;99.90;;;;;;4994088;28;20363;-69
2023/08/14 07:42:50;;;;;;;;;;;24.00;99.90;;;;;;4995249;28;20475;-68
2023/08/14 07:45:16;;;;;;;9.20;4.40;;;24.00;99.90;;;;;;4992939;28;19907;-68
2023/08/14 07:47:42;;;;;;;;;;;24.10;99.90;;;;;;4993737;28;20356;-68
2023/08/14 07:50:08;;;;;;;6.95;4.30;;;24.20;99.90;;;;;;4996445;28;20293;-69
2023/08/14 07:52:34;;;;;;;;;;;24.20;99.90;;;;;;4999903;28;20030;-67
2023/08/14 07:55:00;;;;;;;7.47;4.10;;;24.30;99.90;;;;;;4998308;28;19905;-67
2023/08/14 07:57:26;;;;;;;;;;;24.40;99.90;;;;;;4995205;28;20386;-68
2023/08/14 07:59:51;;;;;;;7.57;3.78;;;24.40;99.90;;;;;;4994570;28;20377;-68
2023/08/14 08:02:17;;;;;;;;;;;24.40;99.90;;;;;;4994752;28;20053;-68
2023/08/14 08:04:42;;;;;;;5.22;3.00;;;24.60;99.90;;;;;;4994775;28;20330;-68
2023/08/14 08:07:08;;;;;;;;;;;24.70;99.90;;;;;;4995028;28;20022;-66
2023/08/14 08:09:34;;;;;;;7.18;3.20;;;24.80;99.90;;;;;;4994941;28;19910;-68
2023/08/14 08:11:59;;;;;;;5.68;3.72;;;24.90;99.90;;;;;;4993187;28;20061;-67
2023/08/14 08:14:25;;;;;;;;;;;25.10;99.90;;;;;;4993394;28;20057;-68
2023/08/14 08:16:51;;;;;;;8.27;3.38;;;25.30;99.90;;;;;;4994455;28;19992;-67
2023/08/14 08:19:17;;;;;;;4.85;3.15;;;25.60;99.90;;;;;;4993599;28;20018;-67
2023/08/14 08:21:42;;;;;;;4.60;3.50;;;25.90;99.90;;;;;;4995539;28;20038;-68
2023/08/14 08:24:08;;;;;;;6.55;3.35;;;26.40;99.90;;;;;;4995706;28;20053;-68
2023/08/14 08:26:34;;;;;;;6.50;3.03;;;26.90;99.90;;;;;;4995835;28;20034;-68
2023/08/14 08:29:00;;;;;;;5.13;3.28;;;27.20;99.90;;;;;;4994960;28;20035;-68
2023/08/14 08:31:26;;;;;;;4.20;2.90;;;27.50;99.90;;;;;;4994293;28;20037;-68
2023/08/14 08:33:51;;;;;;;6.15;3.30;;;27.80;99.90;;;;;;4994767;28;20030;-69
2023/08/14 08:36:19;;;;;;;4.65;2.92;;;29.70;99.90;;;;;;4993812;28;20442;-68
2023/08/14 08:38:46;;;;;;;5.45;2.85;;;32.00;99.90;;;;;;4993491;28;20035;-67
2023/08/14 08:41:22;;;;;;;3.95;2.50;;;34.30;98.90;;;;;;4996407;28;20093;-68
2023/08/14 08:43:54;;;;;;;6.47;3.08;;;36.40;95.40;;;;;;4997788;28;20086;-68
2023/08/14 08:46:22;;;;;;;3.70;2.65;;;37.80;92.50;;;;;;4996228;28;20029;-68
2023/08/14 08:48:50;;;;;;;5.05;2.90;;;38.90;90.70;;;;;;4995846;28;20064;-68
2023/08/14 08:51:17;;;;;;;6.05;3.05;;;40.30;88.30;;;;;;4995681;28;20030;-68
2023/08/14 08:53:43;;;;;;;3.28;2.97;;;41.00;84.80;;;;;;4995423;28;20034;-67
2023/08/14 08:56:10;;;;;;;4.40;2.30;;;41.30;82.80;;;;;;4996840;28;20070;-68
2023/08/14 08:58:35;;;;;;;3.47;2.35;;;42.20;80.00;;;;;;4996682;28;20026;-69
2023/08/14 09:01:01;;;;;;;5.43;2.70;;;42.70;77.30;;;;;;4996911;28;20037;-69
2023/08/14 09:03:27;;;;;;;5.30;2.40;;;43.10;75.40;;;;;;4995782;28;20030;-68
2023/08/14 09:05:53;;;;;;;3.20;2.10;;;43.30;73.80;;;;;;4996625;28;20050;-69
2023/08/14 09:08:19;;;;;;;2.97;2.22;;;42.50;73.00;;;;;;4996618;28;20052;-66
2023/08/14 09:10:44;;;;;;;3.17;2.30;;;42.20;73.00;;;;;;4996479;28;20034;-68
2023/08/14 09:13:10;;;;;;;3.72;2.10;;;42.60;72.40;;;;;;4996462;28;20026;-68
2023/08/14 09:15:41;;;;;;;6.28;2.63;;;43.10;71.20;;;;;;4997114;28;20352;-68
2023/08/14 09:18:06;;;;;;;3.38;2.20;;;41.60;71.40;;;;;;4996889;28;20050;-68
2023/08/14 09:20:32;;;;;;;5.18;2.45;;;40.40;73.30;;;;;;4996494;28;20045;-68
2023/08/14 09:22:58;;;;;;;4.50;2.33;;;40.00;73.80;;;;;;4994778;28;20049;-69
2023/08/14 09:25:24;;;;;;;9.65;2.78;;;39.40;75.00;;;;;;4996496;28;20038;-67
2023/08/14 09:27:50;;;;;;;4.43;2.55;;;39.30;76.30;;;;;;4996194;28;20022;-68
2023/08/14 09:30:17;;;;;;;2.30;2.10;;;40.10;75.30;;;;;;4996173;28;20031;-68
2023/08/14 09:32:43;;;;;;;3.88;2.30;;;40.80;73.20;;;;;;4996060;28;20022;-69
2023/08/14 09:35:08;;;;;;;4.10;2.38;;;39.40;72.60;;;;;;4996204;28;20029;-69
2023/08/14 09:37:35;;;;;;;4.53;2.45;;;37.50;75.50;;;;;;4995971;28;20026;-68
2023/08/14 09:40:13;;;;;;;3.75;2.40;;;36.10;78.80;;;;;;4996414;28;20032;-68
2023/08/14 09:42:39;;;;;;;4.43;2.20;;;35.60;80.50;;;;;;4996100;28;20023;-68
2023/08/14 09:45:06;;;;;;;6.40;2.50;;;36.20;80.10;;;;;;4996177;28;20383;-68
2023/08/14 09:47:31;;;;;;;3.33;2.25;;;38.20;78.20;;;;;;4995919;28;20487;-68
2023/08/14 09:49:58;;;;;;;4.30;2.45;;;38.70;77.40;;;;;;4995436;28;20077;-68
2023/08/14 09:52:24;;;;;;;3.95;2.13;;;40.40;75.30;;;;;;4996212;28;20140;-68
2023/08/14 09:54:50;;;;;;;3.40;2.05;;;41.70;73.80;;;;;;4995915;28;20516;-68
2023/08/14 09:57:16;;;;;;;4.15;2.25;;;42.80;71.80;;;;;;4995226;28;20121;-68
2023/08/14 09:59:42;;;;;;;3.13;2.00;;;42.70;70.80;;;;;;4995203;28;20076;-68
2023/08/14 10:02:14;;;;;;;3.20;2.00;;;40.30;72.30;;;;;;4998950;28;20088;-69
2023/08/14 10:04:43;;;;;;;2.70;2.13;;;38.60;75.20;;;;;;4998882;28;20027;-68
2023/08/14 10:07:09;;;;;;;3.35;2.28;;;38.60;76.10;;;;;;4997263;28;20046;-68
2023/08/14 10:09:38;;;;;;;4.45;2.28;;;39.30;75.00;;;;;;4995687;28;20072;-68
2023/08/14 10:12:11;;;;;;;4.85;2.45;;;40.20;73.90;;;;;;4995475;28;20491;-68
2023/08/14 10:14:39;;;;;;;4.47;2.25;;;40.50;73.30;;;;;;4994436;28;20033;-68
2023/08/14 10:17:12;;;;;;;4.18;2.13;;;39.20;73.40;;;;;;4980818;23;20050;-65
2023/08/14 10:19:40;;;;;;;3.30;2.30;;;39.00;74.30;;;;;;4956565;29;20048;-65
2023/08/14 10:22:08;;;;;;;3.20;2.50;;;38.90;74.40;;;;;;4956666;29;20110;-67
2023/08/14 10:24:37;;;;;;;4.68;2.45;;;38.30;76.20;;;;;;4954847;29;20027;-67
2023/08/14 10:27:04;;;;;;;3.22;2.30;;;37.70;77.70;;;;;;4956322;28;20031;-67
2023/08/14 10:29:32;;;;;;;3.55;2.50;;;38.00;77.80;;;;;;4956236;29;20098;-67
2023/08/14 10:31:58;;;;;;;3.08;2.40;;;38.20;77.60;;;;;;4954535;29;20031;-67
2023/08/14 10:34:25;;;;;;;2.45;2.25;;;38.40;77.30;;;;;;4956056;29;20034;-67
2023/08/14 10:36:51;;;;;;;2.95;2.22;;;38.70;76.30;;;;;;4955090;28;20023;-67
2023/08/14 10:39:18;;;;;;;3.60;2.05;;;39.00;76.30;;;;;;4956171;29;20101;-67
2023/08/14 10:41:44;;;;;;;5.05;3.10;;;38.70;76.20;;;;;;4956214;29;20106;-67
2023/08/14 10:44:11;;;;;;;5.25;2.67;;;39.20;75.60;;;;;;4956319;29;20416;-67
2023/08/14 10:46:46;;;;;;;3.25;2.38;;;39.60;75.10;;;;;;4955549;28;20405;-67
2023/08/14 10:49:12;;;;;;;;;;;40.10;74.90;;;;;;4956474;29;20384;-67
2023/08/14 10:51:42;;;;;;;6.55;2.63;;;40.60;74.00;;;;;;4955722;29;19910;-67
2023/08/14 10:54:14;;;;;;;2.20;2.00;;;40.30;73.90;;;;;;4955705;29;20106;-67
2023/08/14 10:56:42;;;;;;;2.67;2.15;;;40.40;73.70;;;;;;4954252;28;20066;-67
2023/08/14 10:59:19;;;;;;;3.38;2.25;;;41.00;72.90;;;;;;4955479;29;20027;-68
2023/08/14 11:01:50;;;;;;;3.88;2.60;;;41.40;72.50;;;;;;4954726;28;20039;-67
2023/08/14 11:04:16;;;;;;;3.72;2.47;;;42.00;71.50;;;;;;4954186;29;20023;-67
2023/08/14 11:06:56;;;;;;;5.03;2.50;;;41.80;71.50;;;;;;4953908;28;20078;-67
2023/08/14 11:09:22;;;;;;;3.60;2.30;;;41.50;72.20;;;;;;4953904;29;20038;-67
2023/08/14 11:11:48;;;;;;;3.92;2.53;;;41.20;72.50;;;;;;4955167;29;20428;-67
2023/08/14 11:14:14;;;;;;;4.53;2.33;;;41.00;72.40;;;;;;4955854;29;20523;-67
2023/08/14 11:16:41;;;;;;;3.80;2.38;;;39.60;74.20;;;;;;4953455;28;20090;-67
2023/08/14 11:19:06;;;;;;;4.32;2.70;;;38.00;76.60;;;;;;4955111;29;20050;-67
2023/08/14 11:21:35;;;;;;;4.90;2.80;;;37.00;79.00;;;;;;4955118;29;20110;-67
2023/08/14 11:24:08;;;;;;;3.47;2.60;;;36.20;81.00;;;;;;4953900;29;20057;-66
2023/08/14 11:26:34;;;;;;;4.20;2.50;;;35.70;82.30;;;;;;4955017;28;20491;-67
2023/08/14 11:28:59;;;;;;;5.13;3.03;;;34.70;83.70;;;;;;4953661;29;20032;-66
2023/08/14 11:31:25;;;;;;;4.95;2.78;;;34.20;85.00;;;;;;4955039;29;20027;-66
2023/08/14 11:33:50;;;;;;;4.93;3.60;;;33.80;86.40;;;;;;4955181;29;20035;-66
2023/08/14 11:36:16;;;;;;;5.07;2.92;;;33.40;87.10;;;;;;4954905;28;20031;-67
2023/08/14 11:38:41;;;;;;;3.88;2.55;;;33.10;87.60;;;;;;4954902;29;20027;-66
2023/08/14 11:41:07;;;;;;;5.85;2.80;;;32.70;88.20;;;;;;4954916;29;20062;-66
2023/08/14 11:43:35;;;;;;;4.07;2.95;;;32.30;87.60;;;;;;4955070;29;20362;-66
2023/08/14 11:46:02;;;;;;;4.75;2.50;;;32.10;87.90;;;;;;4954924;28;20039;-66
2023/08/14 11:48:28;;;;;;;5.13;2.30;;;32.30;88.60;;;;;;4953537;29;20099;-66
2023/08/14 11:50:53;;;;;;;5.47;2.90;;;32.40;88.50;;;;;;4954875;29;20035;-66
2023/08/14 11:53:19;;;;;;;7.30;2.75;;;32.60;87.60;;;;;;4954785;29;20063;-68
2023/08/14 11:55:45;;;;;;;5.72;2.35;;;32.60;88.20;;;;;;4953405;28;20023;-66
2023/08/14 11:58:12;;;;;;;4.32;2.55;;;32.30;88.60;;;;;;4954797;29;20384;-66
2023/08/14 12:00:39;;;;;;;3.70;2.20;;;32.10;89.20;;;;;;4954937;29;20041;-66
2023/08/14 12:03:06;;;;;;;4.70;2.65;;;32.00;89.70;;;;;;4954496;29;20075;-66
2023/08/14 12:05:32;;;;;;;4.72;2.60;;;31.60;90.00;;;;;;4953428;28;20031;-66
2023/08/14 12:08:02;;;;;;;4.38;2.72;;;31.40;90.50;;;;;;4954527;29;20400;-66
2023/08/14 12:10:32;;;;;;;6.35;3.22;;;31.40;90.60;;;;;;4954702;29;20118;-66
2023/08/14 12:12:58;;;;;;;5.55;2.92;;;31.30;90.90;;;;;;4954890;28;20508;-66
2023/08/14 12:15:24;;;;;;;5.00;2.70;;;31.40;91.00;;;;;;4958372;28;20117;-67
2023/08/14 12:17:49;;;;;;;5.03;2.70;;;31.30;91.30;;;;;;4958208;29;20078;-66
2023/08/14 12:20:16;;;;;;;7.32;2.83;;;31.50;91.40;;;;;;4958413;29;20114;-66
2023/08/14 12:22:42;;;;;;;5.07;2.70;;;31.70;91.50;;;;;;4958838;29;20030;-66
2023/08/14 12:25:08;;;;;;;5.15;2.90;;;32.00;91.20;;;;;;4958744;28;20036;-66
2023/08/14 12:27:34;;;;;;;4.65;2.78;;;32.40;90.80;;;;;;4958621;29;20384;-66
2023/08/14 12:30:00;;;;;;;4.53;2.97;;;32.40;90.50;;;;;;4958178;29;20110;-67
2023/08/14 12:32:26;;;;;;;5.18;2.90;;;32.50;90.40;;;;;;4958059;29;20031;-67
2023/08/14 12:34:52;;;;;;;4.38;2.58;;;32.60;90.20;;;;;;4957126;29;20027;-66
2023/08/14 12:37:18;;;;;;;3.95;2.65;;;32.60;90.20;;;;;;4956785;28;20039;-66
2023/08/14 12:39:45;;;;;;;6.32;2.97;;;32.80;90.50;;;;;;4958404;29;20031;-67
2023/08/14 12:42:14;;;;;;;5.55;2.88;;;33.10;90.50;;;;;;4958275;29;20174;-67
2023/08/14 12:44:39;;;;;;;4.45;2.95;;;33.30;90.30;;;;;;4958231;29;20110;-67
2023/08/14 12:47:06;;;;;;;5.80;2.53;;;33.40;90.10;;;;;;4957748;28;20102;-67
2023/08/14 12:49:35;;;;;;;6.97;2.90;;;33.30;90.10;;;;;;4958252;29;20508;-67
2023/08/14 12:52:00;;;;;;;4.20;2.70;;;33.10;90.50;;;;;;4958421;29;20490;-67
2023/08/14 12:54:26;;;;;;;4.32;2.80;;;32.90;90.70;;;;;;4958242;29;20109;-67
2023/08/14 12:56:53;;;;;;;6.63;3.17;;;32.80;90.80;;;;;;4956649;28;20032;-67
2023/08/14 12:59:18;;;;;;;7.50;2.80;;;32.80;90.70;;;;;;4957945;29;20031;-67
2023/08/14 13:01:44;;;;;;;4.65;3.50;;;32.70;90.90;;;;;;4957579;29;20369;-67
2023/08/14 13:04:10;;;;;;;2.65;2.33;;;32.30;91.20;;;;;;4957979;29;20015;-67
2023/08/14 13:06:37;;;;;;;4.20;2.55;;;32.10;91.30;;;;;;4957499;28;20030;-67
2023/08/14 13:09:04;;;;;;;4.45;2.95;;;31.80;91.60;;;;;;4957681;28;20034;-67
2023/08/14 13:11:29;;;;;;;3.95;2.90;;;31.50;91.70;;;;;;4957373;29;20034;-67
2023/08/14 13:13:55;;;;;;;5.22;2.67;;;31.40;91.90;;;;;;4957823;29;20031;-67
2023/08/14 13:16:20;;;;;;;4.07;2.47;;;31.20;92.10;;;;;;4957202;28;20039;-67
2023/08/14 13:18:46;;;;;;;6.15;2.92;;;31.20;92.20;;;;;;4957448;29;20028;-67
2023/08/14 13:21:12;;;;;;;3.60;2.70;;;31.20;92.70;;;;;;4957364;28;20038;-67
2023/08/14 13:23:38;;;;;;;8.32;2.63;;;31.10;92.10;;;;;;4958144;29;20035;-67
2023/08/14 13:26:03;;;;;;;4.90;2.30;;;31.10;91.90;;;;;;4956515;28;20023;-67
2023/08/14 13:28:32;;;;;;;7.18;3.03;;;31.10;91.80;;;;;;4957614;29;20488;-67
2023/08/14 13:30:57;;;;;;;3.60;2.42;;;31.00;91.50;;;;;;4959188;29;20082;-67
2023/08/14 13:33:23;;;;;;;3.90;3.00;;;30.80;91.50;;;;;;4957040;29;20027;-67
2023/08/14 13:35:49;;;;;;;6.40;2.90;;;30.70;91.80;;;;;;4957130;28;20059;-66
2023/08/14 13:38:14;;;;;;;7.97;3.13;;;30.40;92.40;;;;;;4955813;29;20031;-66
2023/08/14 13:40:40;;;;;;;6.75;3.17;;;30.30;92.40;;;;;;4956973;29;20031;-66
2023/08/14 13:43:06;;;;;;;5.57;3.05;;;30.20;92.70;;;;;;4957012;29;20051;-65
2023/08/14 13:45:31;;;;;;;7.00;3.20;;;30.10;93.60;;;;;;4950701;28;20015;-66
2023/08/14 13:47:57;;;;;;;4.95;3.40;;;29.70;95.60;;;;;;4951104;28;20079;-66
2023/08/14 13:50:27;;;;;;;4.55;3.20;;;29.40;97.70;;;;;;4951207;29;20023;-66
2023/08/14 13:52:53;;;;;;;7.60;3.70;;;29.10;98.20;;;;;;4955729;29;20051;-66
2023/08/14 13:55:19;;;;;;;4.63;3.13;;;28.90;98.50;;;;;;4957273;28;20042;-66
2023/08/14 13:57:44;;;;;;;4.35;3.25;;;28.90;99.30;;;;;;4951399;28;20023;-66
2023/08/14 14:00:10;;;;;;;5.00;3.30;;;28.80;99.20;;;;;;4956768;28;20087;-67
2023/08/14 14:02:36;;;;;;;5.22;2.97;;;28.80;99.30;;;;;;4951851;29;20082;-67
2023/08/14 14:05:03;;;;;;;4.30;2.70;;;28.90;99.60;;;;;;4937246;29;20118;-67
2023/08/14 14:07:29;;;;;;;5.50;3.45;;;29.10;99.30;;;;;;4937914;29;20093;-66
2023/08/14 14:09:55;;;;;;;8.63;3.08;;;29.20;99.40;;;;;;4937562;29;20504;-66
2023/08/14 14:12:20;;;;;;;7.60;4.13;;;29.20;99.00;;;;;;4937606;29;20481;-66
2023/08/14 14:14:46;;;;;;;9.40;3.90;;;29.20;99.80;;;;;;4937346;29;20039;-62
2023/08/14 14:17:11;;;;;;;3.83;2.70;;;29.10;98.80;;;;;;4937066;29;20604;-63
2023/08/14 14:19:39;;;;;;;4.88;2.90;;;29.00;98.30;;;;;;4936986;29;20042;-62
2023/08/14 14:22:05;;;;;;;6.07;2.72;;;28.90;99.40;;;;;;4937179;29;20023;-62
2023/08/14 14:24:31;;;;;;;5.43;3.13;;;28.70;98.60;;;;;;4937451;29;20024;-62
2023/08/14 14:26:58;;;;;;;3.50;3.00;;;28.60;99.20;;;;;;4939186;29;20091;-62
2023/08/14 14:29:25;;;;;;;7.53;4.10;;;28.50;99.50;;;;;;4954147;29;20031;-63
2023/08/14 14:31:51;;;;;;;4.85;3.03;;;28.50;99.90;;;;;;4956775;29;20019;-64
2023/08/14 14:34:17;;;;;;;4.22;3.50;;;28.50;99.90;;;;;;4954647;29;20051;-63
2023/08/14 14:36:42;;;;;;;7.53;4.53;;;28.50;99.90;;;;;;4956104;28;20491;-63
2023/08/14 14:39:09;;;;;;;6.63;3.47;;;28.50;99.90;;;;;;4954647;29;20031;-63
2023/08/14 14:41:36;;;;;;;4.65;3.47;;;28.50;99.90;;;;;;4955945;29;20388;-63
2023/08/14 14:44:01;;;;;;;7.72;3.53;;;28.50;99.90;;;;;;4954672;29;20378;-63
2023/08/14 14:46:27;;;;;;;5.55;3.38;;;28.40;99.90;;;;;;4954652;28;20174;-63
2023/08/14 14:48:52;;;;;;;5.88;4.03;;;28.50;99.90;;;;;;4955896;29;20385;-63
2023/08/14 14:51:18;;;;;;;6.80;2.97;;;28.60;99.90;;;;;;4955448;29;20082;-63
2023/08/14 14:53:43;;;;;;;5.78;3.25;;;28.60;99.90;;;;;;4956470;29;20114;-63
2023/08/14 14:56:09;;;;;;;6.88;3.38;;;28.60;99.90;;;;;;4956217;28;20020;-62
2023/08/14 14:58:34;;;;;;;6.95;3.03;;;28.70;99.90;;;;;;4955577;29;20034;-60
2023/08/14 15:01:00;;;;;;;4.07;3.30;;;28.70;99.90;;;;;;4955808;29;20106;-63
2023/08/14 15:03:25;;;;;;;6.07;3.22;;;28.70;99.90;;;;;;4955598;29;20103;-62
2023/08/14 15:05:52;;;;;;;3.83;3.15;;;28.70;99.90;;;;;;4955227;28;20177;-61
2023/08/14 15:08:18;;;;;;;4.53;3.60;;;28.80;99.90;;;;;;4955618;29;20404;-61
2023/08/14 15:10:44;;;;;;;7.30;3.33;;;28.90;99.90;;;;;;4955524;29;20035;-62
2023/08/14 15:13:10;;;;;;;4.38;3.60;;;29.00;99.90;;;;;;4955580;29;20033;-63
2023/08/14 15:15:36;;;;;;;5.05;3.42;;;29.20;99.90;;;;;;4955208;28;20036;-63
2023/08/14 15:18:02;;;;;;;7.00;3.47;;;29.40;99.90;;;;;;4954287;29;20038;-63
2023/08/14 15:20:28;;;;;;;5.93;3.47;;;29.70;99.90;;;;;;4955646;29;20349;-63
2023/08/14 15:22:54;;;;;;;5.80;3.58;;;29.70;99.90;;;;;;4955286;29;20428;-63
2023/08/14 15:25:20;;;;;;;7.28;4.13;;;29.60;99.90;;;;;;4955460;28;20166;-63
2023/08/14 15:27:45;;;;;;;6.95;3.33;;;29.60;99.90;;;;;;4955316;29;20027;-62
2023/08/14 15:30:11;;;;;;;7.20;3.33;;;29.60;99.90;;;;;;4954931;29;20042;-61
2023/08/14 15:32:37;;;;;;;5.50;3.53;;;29.40;99.90;;;;;;4955355;29;20453;-62
2023/08/14 15:35:03;;;;;;;5.03;3.05;;;29.30;99.90;;;;;;4955067;28;20027;-63
2023/08/14 15:37:28;;;;;;;5.30;3.55;;;29.30;99.90;;;;;;4955174;29;20027;-64
2023/08/14 15:39:54;;;;;;;5.60;3.65;;;29.20;99.90;;;;;;4955067;29;20033;-63
2023/08/14 15:42:21;;;;;;;4.78;3.22;;;29.10;99.90;;;;;;4953794;29;20027;-63
2023/08/14 15:44:46;;;;;;;9.30;3.72;;;29.20;99.90;;;;;;4955049;29;20032;-63
2023/08/14 15:47:12;;;;;;;6.35;3.55;;;29.10;99.90;;;;;;4954839;28;20029;-63
2023/08/14 15:49:38;;;;;;;5.90;3.65;;;29.10;99.90;;;;;;4954281;28;20031;-63
2023/08/14 15:52:04;;;;;;;5.10;3.30;;;29.10;99.90;;;;;;4954686;29;20435;-63
2023/08/14 15:54:29;;;;;;;3.28;2.67;;;29.00;99.90;;;;;;4955344;29;20082;-62
2023/08/14 15:56:55;;;;;;;5.70;3.85;;;28.90;99.90;;;;;;4953634;28;20031;-63
2023/08/14 15:59:20;;;;;;;5.10;3.40;;;28.90;99.90;;;;;;4954835;29;20100;-63
2023/08/14 16:01:46;;;;;;;7.55;3.45;;;28.80;99.90;;;;;;4955589;29;20028;-63
2023/08/14 16:04:13;;;;;;;5.60;3.33;;;28.90;99.90;;;;;;4953476;29;20492;-65
2023/08/14 16:06:39;;;;;;;9.05;4.22;;;28.90;99.90;;;;;;4954133;28;20373;-63
2023/08/14 16:09:04;;;;;;;4.70;3.55;;;28.80;99.90;;;;;;4954983;29;20034;-63
2023/08/14 16:11:30;;;;;;;7.40;3.33;;;28.80;99.90;;;;;;4953321;29;20086;-62
2023/08/14 16:13:56;;;;;;;4.57;3.15;;;28.70;99.90;;;;;;4954947;29;20031;-63
2023/08/14 16:16:22;;;;;;;4.10;3.42;;;28.80;99.90;;;;;;4973747;23;20043;-67
2023/08/14 16:18:47;;;;;;;5.25;3.13;;;28.70;99.90;;;;;;4955872;29;20066;-66
2023/08/14 16:21:13;;;;;;;6.07;4.00;;;28.80;99.90;;;;;;4953786;29;20027;-66
2023/08/14 16:23:38;;;;;;;5.57;3.40;;;28.90;99.90;;;;;;4953698;29;20031;-67
2023/08/14 16:26:05;;;;;;;7.35;3.47;;;28.90;99.90;;;;;;4960793;28;20099;-67
2023/08/14 16:28:31;;;;;;;5.68;3.33;;;28.80;99.90;;;;;;4959252;29;20051;-67
2023/08/14 16:30:56;;;;;;;5.65;3.75;;;28.80;99.90;;;;;;4961512;29;20039;-68
2023/08/14 16:33:22;;;;;;;5.40;3.60;;;28.80;99.90;;;;;;4956910;29;20050;-67
2023/08/14 16:35:48;;;;;;;5.97;3.40;;;28.80;99.90;;;;;;4955144;28;20039;-66
2023/08/14 16:38:13;;;;;;;4.82;3.45;;;28.90;99.90;;;;;;4954038;29;20507;-67
2023/08/14 16:40:43;;;;;;;5.30;4.07;;;28.80;99.90;;;;;;4955670;29;20027;-65
2023/08/14 16:43:09;;;;;;;5.80;3.65;;;28.80;99.90;;;;;;4955343;29;20508;-66
2023/08/14 16:45:35;;;;;;;9.57;5.78;;;28.80;99.90;;;;;;4954522;28;20098;-66
2023/08/14 16:48:01;;;;;;;7.50;3.60;;;28.80;99.90;;;;;;4954251;29;20074;-67